createdAt,value
2018-05-18T00:05:03.856Z,12.20
2018-05-18T00:07:34.681Z,12.10
2018-05-18T00:10:04.197Z,13.03
2018-05-18T00:12:42.834Z,13.30
2018-05-18T00:18:06.226Z,13.23
2018-05-18T00:21:07.219Z,12.33
2018-05-18T00:26:49.121Z,12.63
2018-05-18T00:29:26.247Z,13.27
2018-05-18T00:32:01.251Z,13.87
2018-05-18T00:37:17.863Z,11.80
2018-05-18T00:39:51.207Z,12.30
2018-05-18T00:42:26.723Z,12.00
2018-05-18T00:45:01.107Z,12.00
2018-05-18T00:47:35.865Z,13.73
2018-05-18T00:50:12.309Z,11.47
2018-05-18T00:52:44.708Z,12.83
2018-05-18T00:55:34.013Z,11.47
2018-05-18T00:58:10.727Z,11.70
2018-05-18T01:00:49.385Z,11.73
2018-05-18T01:03:22.641Z,11.60
2018-05-18T01:06:00.071Z,13.20
2018-05-18T01:08:35.299Z,12.70
2018-05-18T01:11:10.547Z,11.33
2018-05-18T01:19:55.847Z,11.67
2018-05-18T01:22:59.683Z,10.93
2018-05-18T01:25:34.962Z,11.37
2018-05-18T01:28:22.292Z,10.73
2018-05-18T01:33:52.338Z,10.20
2018-05-18T01:39:26.905Z,10.20
2018-05-18T01:45:07.993Z,10.57
2018-05-18T01:47:40.590Z,11.20
2018-05-18T01:50:17.688Z,11.13
2018-05-18T01:53:05.582Z,10.73
2018-05-18T01:55:36.692Z,11.53
2018-05-18T01:58:13.015Z,11.10
2018-05-18T02:03:47.053Z,11.63
2018-05-18T02:06:30.356Z,10.50
2018-05-18T02:22:09.440Z,9.60
2018-05-18T02:24:52.776Z,10.17
2018-05-18T02:27:31.029Z,10.67
2018-05-18T02:30:13.730Z,10.53
2018-05-18T02:32:47.241Z,9.27
2018-05-18T02:38:40.097Z,11.07
2018-05-18T02:41:13.597Z,9.80
2018-05-18T02:47:07.306Z,10.63
2018-05-18T02:52:33.751Z,11.87
2018-05-18T03:04:34.644Z,10.67
2018-05-18T03:07:35.791Z,10.97
2018-05-18T03:10:07.149Z,11.47
2018-05-18T03:12:41.061Z,9.93
2018-05-18T03:18:25.072Z,10.53
2018-05-18T03:38:00.658Z,11.00
2018-05-18T03:40:32.816Z,11.50
2018-05-18T03:43:07.099Z,13.83
2018-05-18T03:48:53.995Z,13.00
2018-05-18T03:51:27.806Z,12.93
2018-05-18T03:54:01.820Z,14.00
2018-05-18T03:56:38.256Z,12.43
2018-05-18T03:59:14.387Z,13.40
2018-05-18T04:14:18.865Z,11.70
2018-05-18T04:16:55.335Z,11.57
2018-05-18T04:25:55.511Z,11.73
2018-05-18T04:28:30.255Z,11.97
2018-05-18T04:31:03.081Z,13.07
2018-05-18T04:33:38.298Z,13.13
2018-05-18T04:39:22.062Z,12.00
2018-05-18T04:41:52.035Z,13.17
2018-05-18T04:44:27.071Z,11.60
2018-05-18T04:49:31.788Z,11.27
2018-05-18T04:52:02.008Z,11.47
2018-05-18T04:54:32.240Z,11.70
2018-05-18T04:57:02.453Z,10.20
2018-05-18T04:59:32.641Z,10.30
2018-05-18T05:02:03.032Z,8.73
2018-05-18T05:04:33.187Z,8.93
2018-05-18T05:07:03.608Z,9.50
2018-05-18T05:09:33.804Z,8.63
2018-05-18T05:12:03.929Z,8.60
2018-05-18T05:14:34.090Z,9.07
2018-05-18T05:17:04.202Z,7.37
2018-05-18T06:57:41.653Z,6.90
2018-05-18T07:00:12.336Z,7.25
2018-05-18T07:02:43.062Z,7.53
2018-05-18T07:05:13.909Z,6.57
2018-05-18T07:07:44.600Z,7.05
2018-05-18T07:10:15.465Z,6.72
2018-05-18T07:12:46.423Z,6.62
2018-05-18T07:15:17.097Z,7.18
2018-05-18T07:17:48.289Z,7.28
2018-05-18T07:20:19.465Z,6.72
2018-05-18T07:22:50.384Z,7.40
2018-05-18T07:25:21.270Z,7.00
2018-05-18T07:27:51.940Z,7.15
2018-05-18T07:30:23.092Z,7.37
2018-05-18T07:32:53.759Z,7.15
2018-05-18T07:35:24.419Z,7.80
2018-05-18T07:37:55.550Z,6.72
2018-05-18T07:40:27.254Z,6.85
2018-05-18T07:42:58.186Z,7.70
2018-05-18T07:45:30.131Z,7.03
2018-05-18T07:48:01.014Z,7.47
2018-05-18T07:50:31.638Z,8.02
2018-05-18T07:53:02.516Z,7.75
2018-05-18T07:55:33.203Z,8.70
2018-05-18T07:58:03.654Z,8.90
2018-05-18T08:00:34.315Z,7.30
2018-05-18T08:03:05.009Z,7.90
2018-05-18T08:05:35.680Z,8.48
2018-05-18T08:08:06.225Z,8.68
2018-05-18T08:10:37.132Z,7.85
2018-05-18T08:13:08.547Z,6.70
2018-05-18T08:15:39.642Z,7.32
2018-05-18T08:18:10.286Z,8.70
2018-05-18T08:20:40.965Z,7.70
2018-05-18T08:23:11.844Z,7.65
2018-05-18T08:25:43.262Z,7.90
2018-05-18T08:28:14.145Z,7.37
2018-05-18T08:31:01.537Z,7.87
2018-05-18T08:33:36.906Z,8.07
2018-05-18T08:36:07.778Z,7.43
2018-05-18T08:38:38.446Z,8.23
2018-05-18T08:41:08.988Z,8.65
2018-05-18T18:21:20.438Z,4.70
2018-05-18T18:24:07.595Z,4.83
2018-05-18T18:26:37.721Z,4.87
2018-05-18T18:35:39.925Z,5.57
2018-05-18T18:38:26.602Z,5.20
2018-05-18T18:41:13.169Z,5.40
2018-05-18T18:44:04.267Z,5.90
2018-05-18T18:46:34.413Z,5.93
2018-05-18T18:55:43.318Z,5.70
2018-05-18T19:01:19.039Z,6.27
2018-05-18T19:07:17.614Z,7.87
2018-05-18T19:10:04.053Z,8.00
2018-05-18T19:12:55.909Z,8.23
2018-05-18T19:15:44.740Z,9.87
2018-05-18T19:18:14.923Z,9.43
2018-05-18T19:26:55.301Z,11.37
2018-05-18T19:29:44.694Z,12.33
2018-05-18T19:32:32.602Z,13.50
2018-05-18T19:44:10.577Z,15.47
2018-05-18T19:50:10.619Z,17.03
2018-05-18T19:52:57.583Z,17.27
2018-05-18T20:01:36.449Z,19.57
2018-05-18T20:10:17.013Z,19.63
2018-05-18T20:13:04.997Z,20.47
2018-05-18T20:15:51.642Z,19.67
2018-05-18T20:18:38.615Z,20.47
2018-05-18T20:21:08.720Z,19.30
2018-05-18T20:27:07.500Z,19.87
2018-05-18T20:29:37.770Z,20.40
2018-05-18T20:32:27.399Z,21.60
2018-05-18T20:35:16.893Z,20.53
2018-05-18T20:38:05.703Z,19.53
2018-05-18T20:40:52.628Z,20.43
2018-05-18T20:43:40.840Z,20.67
2018-05-18T20:58:43.740Z,20.87
2018-05-18T21:01:32.007Z,21.97
2018-05-18T21:16:23.099Z,20.97
2018-05-18T21:19:12.964Z,21.10
2018-05-18T21:25:15.061Z,20.93
2018-05-18T21:30:42.902Z,21.27
2018-05-18T21:33:13.096Z,20.47
2018-05-18T21:38:53.806Z,20.70
2018-05-18T21:41:39.978Z,22.50
2018-05-18T21:44:10.032Z,21.17
2018-05-18T21:56:21.984Z,20.40
2018-05-18T21:59:29.572Z,21.73
2018-05-18T22:02:16.098Z,20.47
2018-05-18T22:14:40.081Z,20.43
2018-05-18T22:17:46.014Z,20.17
2018-05-18T22:20:36.056Z,20.60
2018-05-18T22:23:24.390Z,20.73
2018-05-18T22:25:54.584Z,21.43
2018-05-18T22:31:54.485Z,21.50
2018-05-18T22:40:55.871Z,19.43
2018-05-18T22:43:42.184Z,19.80
2018-05-18T22:46:31.483Z,19.97
2018-05-18T22:52:29.795Z,19.93
2018-05-18T22:55:28.440Z,19.37
2018-05-18T22:57:58.589Z,17.90
2018-05-18T23:00:42.424Z,19.27
2018-05-18T23:03:32.428Z,20.27
2018-05-18T23:06:18.816Z,19.80
2018-05-18T23:09:09.443Z,17.87
2018-05-18T23:11:56.750Z,18.13
2018-05-18T23:17:55.213Z,18.43
2018-05-18T23:20:44.093Z,17.33
2018-05-18T23:23:30.140Z,20.50
2018-05-18T23:32:24.169Z,20.10
2018-05-18T23:38:04.039Z,20.23
2018-05-18T23:44:03.687Z,19.67
2018-05-18T23:46:55.357Z,20.03
2018-05-18T23:49:42.044Z,21.73
2018-05-18T23:52:31.340Z,21.33
2018-05-18T23:55:30.405Z,23.33
2018-05-18T23:58:15.517Z,22.17
